Latest Weather Observations for Mount Isa

IDQ60801

Issued at 9:35 pm EST Sunday 23 November 2014 (issued every 30 minutes, with the page automatically refreshed every 10 minutes)

About weather observations | Map of weather stations | Latest weather observations for QLD | Other Formats
Station Details ID: 029127 Name: MOUNT ISA AERO Lat: -20.68 Lon: 139.49 Height: 340.3 m
Data from the previous 72 hours. | See also: Recent months at Mount Isa
Date/Time
EST
Temp
°C
App
Temp
°C
Dew
Point
Rel
Hum
%
Delta-T
°C
Wind Press
QNH
hPa
Press
MSL
hPa
Rain
since 9 am
mm
Dir
 
Spd
km/h
Gust
km/h
Spd
kts
Gust
kts
23/09:30pm 33.4 30.6 15.3 33 11.4 E 24 37 13 20 1011.0 - 11.0
23/09:00pm 33.0 31.5 15.2 34 11.2 SE 17 24 9 13 1010.7 1008.5 11.0
23/08:30pm 32.8 32.3 17.0 38 10.2 SSE 15 20 8 11 1010.3 - 11.0
23/08:00pm 32.5 33.2 17.0 39 10.0 WNW 9 13 5 7 1009.4 - 11.0
23/07:30pm 31.7 30.6 17.7 43 9.1 WSW 20 26 11 14 1009.1 - 11.0
23/07:00pm 30.9 28.7 16.8 42 9.0 W 24 37 13 20 1008.9 - 11.0
23/06:44pm 29.7 28.5 18.3 50 7.4 NW 22 24 12 13 1008.7 - 11.0
23/06:30pm 29.0 28.6 17.1 48 7.6 N 15 30 8 16 1008.9 - 10.8
23/06:20pm 29.5 25.3 17.2 47 7.9 ESE 35 46 19 25 1009.0 - 9.4
23/06:14pm 29.9 22.8 16.1 43 8.7 S 48 67 26 36 1009.0 - 8.6
23/06:11pm 29.2 20.3 15.8 44 8.4 S 57 67 31 36 1009.2 - 8.4
23/06:07pm 28.7 23.7 16.1 46 7.9 SSE 37 61 20 33 1009.8 - 6.8
23/06:00pm 28.8 26.6 20.3 60 5.7 SSE 32 44 17 24 1009.2 1006.9 2.8
23/05:57pm 30.8 28.3 18.8 48 7.9 SSE 30 44 16 24 1009.0 - 1.2
23/05:53pm 33.2 35.2 20.0 45 8.9 NNE 9 20 5 11 1008.4 - 0.2
23/05:52pm 34.5 36.3 20.3 43 9.6 NNE 11 24 6 13 1008.4 - 0.2
23/05:30pm 39.9 37.9 12.8 20 16.9 NE 15 24 8 13 1007.5 - 0.0
23/05:00pm 40.8 39.1 12.5 18 17.6 N 13 26 7 14 1007.5 - 0.0
23/04:30pm 40.0 39.0 12.2 19 17.2 NNE 9 13 5 7 1007.8 - 0.0
23/04:00pm 40.7 38.1 12.1 18 17.7 N 17 26 9 14 1008.2 - 0.0
23/03:30pm 38.8 37.8 12.4 20 16.3 NNW 9 15 5 8 1008.7 - 0.0
23/03:00pm 40.5 37.6 12.8 19 17.3 NNE 20 26 11 14 1009.2 1006.9 0.0
23/02:30pm 40.0 37.8 13.2 20 16.8 NNE 17 32 9 17 1009.8 - 0.0
23/02:00pm 39.5 36.5 12.0 19 16.9 N 19 24 10 13 1010.3 - 0.0
23/01:30pm 39.1 36.9 13.4 21 16.1 N 17 28 9 15 1010.8 - 0.0
23/01:00pm 38.3 37.6 14.2 24 15.2 NNE 11 26 6 14 1011.5 - 0.0
23/12:30pm 38.2 35.9 14.0 23 15.2 N 19 28 10 15 1012.0 - 0.0
23/12:00pm 36.4 34.0 14.5 27 13.8 N 20 28 11 15 1012.6 1010.3 0.0
23/11:30am 36.4 34.2 14.9 27 13.6 NNE 20 28 11 15 1013.0 - 0.0
23/11:00am 34.8 32.6 14.5 29 12.7 NE 19 28 10 15 1013.6 - 0.0
23/10:30am 35.2 32.6 14.9 29 12.8 NNE 22 28 12 15 1013.9 - 0.0
23/10:00am 34.4 31.4 14.8 30 12.3 NE 24 33 13 18 1014.0 - 0.0
23/09:30am 33.5 31.3 14.4 31 11.9 NNE 19 24 10 13 1013.9 - 0.0
23/09:00am 32.4 29.4 14.7 34 11.0 ENE 24 33 13 18 1014.1 1011.9 0.0
23/08:30am 31.5 29.7 15.6 38 10.0 NNE 19 30 10 16 1013.8 - 0.0
23/08:00am 31.4 29.9 15.2 37 10.1 ENE 17 24 9 13 1013.8 - 0.0
23/07:30am 28.9 29.6 17.1 49 7.5 NNE 9 13 5 7 1013.5 - 0.0
23/07:00am 26.3 27.8 18.0 60 5.3 NE 7 9 4 5 1012.8 - 0.0
23/06:30am 25.5 27.8 16.7 58 5.5 CALM 0 0 0 0 1012.4 - 0.0
23/06:00am 25.4 26.4 16.4 57 5.6 NNW 6 7 3 4 1011.9 1009.6 0.0
23/05:30am 25.9 26.7 15.9 54 6.2 WNW 6 9 3 5 1011.6 - 0.0
23/05:00am 26.8 29.3 17.2 55 6.1 CALM 0 0 0 0 1011.3 - 0.0
23/04:30am 27.0 28.5 16.7 53 6.5 SSE 4 7 2 4 1011.0 - 0.0
23/04:00am 27.2 28.7 16.7 52 6.6 S 4 7 2 4 1010.7 - 0.0
23/03:30am 27.9 29.0 17.0 51 6.9 SSW 7 11 4 6 1010.7 - 0.0
23/03:00am 28.7 30.1 16.3 47 7.8 S 4 7 2 4 1010.8 1008.6 0.0
23/02:30am 29.6 28.9 15.3 41 8.9 E 13 17 7 9 1011.0 - 0.0
23/02:00am 29.9 29.9 15.1 40 9.2 E 9 13 5 7 1011.7 - 0.0
23/01:30am 30.0 29.5 15.8 42 8.9 E 13 19 7 10 1012.0 - 0.0
23/01:00am 28.1 28.7 16.7 50 7.2 NNE 9 11 5 6 1012.3 - 0.0
23/12:30am 26.6 27.1 15.6 50 6.8 NNE 7 11 4 6 1012.0 - 0.0
23/12:00am 27.1 29.4 16.8 53 6.5 CALM 0 0 0 0 1011.9 1009.6 0.0
 
Date/Time
EST
Temp
°C
App
Temp
°C
Dew
Point
Rel
Hum
%
Delta-T
°C
Wind Press
QNH
hPa
Press
MSL
hPa
Rain
since 9 am
mm
Dir
 
Spd
km/h
Gust
km/h
Spd
kts
Gust
kts
22/11:30pm 28.0 30.0 16.0 48 7.5 CALM 0 0 0 0 1012.1 - 0.0
22/11:00pm 28.0 30.2 16.6 50 7.2 CALM 0 0 0 0 1012.3 - 0.0
22/10:30pm 28.6 29.8 16.0 46 7.9 S 4 7 2 4 1012.2 - 0.0
22/10:00pm 30.3 30.5 15.8 41 9.1 S 9 11 5 6 1012.1 - 0.0
22/09:30pm 31.0 30.7 15.5 39 9.7 S 11 13 6 7 1011.7 - 0.0
22/09:00pm 31.3 30.6 15.3 38 10.0 S 13 17 7 9 1011.7 1009.4 0.0
22/08:30pm 31.9 30.0 15.3 36 10.4 S 19 26 10 14 1011.6 - 0.0
22/08:00pm 32.2 32.2 15.1 35 10.7 S 9 11 5 6 1011.0 - 0.0
22/07:30pm 33.4 32.8 14.5 32 11.8 SSW 11 15 6 8 1010.6 - 0.0
22/07:00pm 33.7 31.5 14.5 31 12.0 SSW 19 24 10 13 1010.4 - 0.0
22/06:30pm 34.6 33.3 14.7 30 12.5 SSW 15 19 8 10 1010.2 - 0.0
22/06:00pm 34.7 32.1 15.9 32 12.0 S 24 32 13 17 1009.9 1007.6 0.0
22/05:30pm 35.1 34.1 14.5 29 12.9 W 13 13 7 7 1010.0 - 0.0
22/05:00pm 36.0 32.8 14.3 27 13.6 NW 24 33 13 18 1009.5 - 0.0
22/04:30pm 36.6 33.0 12.9 24 14.6 W 24 32 13 17 1009.5 - 0.0
22/04:00pm 37.7 33.8 13.3 23 15.2 W 26 37 14 20 1009.5 - 0.0
22/03:30pm 38.6 35.7 12.8 21 16.0 W 20 32 11 17 1009.4 - 0.0
22/03:00pm 38.3 33.8 12.5 21 15.9 WSW 28 33 15 18 1009.9 1007.6 0.0
22/02:30pm 38.9 34.7 13.5 22 15.9 W 28 37 15 20 1010.3 - 0.0
22/02:00pm 38.3 35.3 12.0 20 16.1 WSW 19 26 10 14 1010.6 - 0.0
22/01:30pm 40.2 36.0 12.5 19 17.2 WSW 26 33 14 18 1010.9 - 0.0
22/01:00pm 38.8 37.5 12.6 21 16.2 W 11 17 6 9 1011.4 - 0.0
22/12:30pm 39.1 37.9 11.6 19 16.8 SW 9 15 5 8 1011.6 - 0.0
22/12:00pm 39.3 36.3 12.7 20 16.5 W 20 30 11 16 1012.1 1009.8 0.0
22/11:30am 37.8 36.2 12.7 22 15.5 W 13 28 7 15 1012.4 - 0.0
22/11:00am 37.9 36.1 13.3 23 15.3 WNW 15 22 8 12 1012.7 - 0.0
22/10:30am 35.9 33.8 13.7 26 13.8 NW 17 28 9 15 1013.1 - 0.0
22/10:00am 35.4 33.2 13.4 26 13.6 NNW 17 28 9 15 1013.2 - 0.0
22/09:30am 34.5 32.0 14.1 29 12.7 WNW 20 28 11 15 1013.4 - 0.0
22/09:00am 34.3 31.8 14.2 29 12.5 WNW 20 37 11 20 1013.1 1010.8 0.2
22/08:30am 32.2 30.9 15.9 37 10.3 WNW 17 26 9 14 1012.8 - 0.2
22/08:00am 30.3 30.9 17.8 47 8.1 WNW 11 13 6 7 1012.8 - 0.2
22/07:30am 28.3 30.5 18.4 55 6.4 WSW 4 9 2 5 1012.4 - 0.2
22/07:00am 26.8 28.5 19.3 63 4.9 S 9 11 5 6 1012.2 - 0.2
22/06:30am 25.1 28.5 19.3 70 3.8 CALM 0 0 0 0 1012.0 - 0.2
22/06:00am 24.6 26.7 19.0 71 3.6 W 6 7 3 4 1011.5 1009.2 0.2
22/05:30am 24.6 25.6 18.7 69 3.8 W 11 15 6 8 1011.5 - 0.2
22/05:00am 25.2 27.3 19.0 68 4.0 N 6 9 3 5 1011.3 - 0.2
22/04:30am 25.7 26.8 18.9 66 4.4 N 11 13 6 7 1011.4 - 0.2
22/04:00am 25.7 27.2 18.9 66 4.4 E 9 13 5 7 1011.2 - 0.2
22/03:30am 25.3 27.1 19.5 70 3.8 N 9 17 5 9 1010.2 - 0.2
22/03:00am 25.6 26.3 19.6 69 3.9 N 15 19 8 10 1010.5 1008.2 0.2
22/02:30am 25.9 24.9 19.6 68 4.1 NNE 24 32 13 17 1011.0 - 0.2
22/02:00am 26.4 24.8 19.2 64 4.7 NNE 26 35 14 19 1011.5 - 0.2
22/01:30am 27.6 25.3 18.5 57 5.9 N 28 41 15 22 1011.6 - 0.2
22/01:00am 28.5 25.6 18.0 53 6.8 NE 30 48 16 26 1011.6 - 0.2
22/12:30am 29.4 26.2 17.2 47 7.8 NNE 30 48 16 26 1011.0 - 0.2
22/12:15am 29.5 26.4 16.6 45 8.2 NNE 28 37 15 20 1010.9 - 0.2
22/12:07am 30.0 23.5 15.6 41 9.0 NE 44 63 24 34 1010.7 - 0.2
22/12:03am 30.2 22.5 15.5 41 9.2 NE 50 63 27 34 1010.6 - 0.2
22/12:00am 30.0 27.1 15.2 40 9.2 NNE 24 52 13 28 1010.4 1008.1 0.2
 
Date/Time
EST
Temp
°C
App
Temp
°C
Dew
Point
Rel
Hum
%
Delta-T
°C
Wind Press
QNH
hPa
Press
MSL
hPa
Rain
since 9 am
mm
Dir
 
Spd
km/h
Gust
km/h
Spd
kts
Gust
kts
21/11:30pm 30.3 26.8 15.6 41 9.2 ENE 28 35 15 19 1010.3 - 0.2
21/11:07pm 28.5 26.9 16.6 48 7.5 SE 20 28 11 15 1012.1 - 0.2
21/11:02pm 27.6 23.6 17.6 54 6.4 S 35 54 19 29 1012.4 - 0.0
21/11:00pm 28.4 23.3 16.9 49 7.3 S 39 54 21 29 1012.4 - 0.0
21/10:59pm 28.6 23.4 17.5 51 7.1 S 41 54 22 29 1012.4 - 0.0
21/10:57pm 30.5 26.9 15.3 39 9.5 SSW 28 50 15 27 1012.4 - 0.0
21/10:48pm 32.3 29.3 12.6 30 11.9 SSW 20 24 11 13 1012.4 - 0.0
21/10:30pm 32.2 29.7 12.4 30 11.9 S 17 22 9 12 1012.0 - 0.0
21/10:00pm 31.9 29.3 13.1 31 11.4 S 19 28 10 15 1011.9 - 0.0
21/09:30pm 32.1 29.1 11.8 29 12.1 SE 19 32 10 17 1011.6 - 0.0
21/09:00pm 31.2 27.6 13.0 33 11.0 SSE 24 32 13 17 1011.5 1009.2 0.0
21/08:30pm 30.2 25.9 14.4 38 9.7 SSE 30 37 16 20 1011.2 - 0.0
21/08:00pm 30.3 26.3 15.2 40 9.4 S 30 48 16 26 1010.9 - 0.0
21/07:30pm 30.7 29.5 17.0 43 8.8 SSE 19 26 10 14 1010.7 - 0.0
21/07:00pm 31.3 26.8 15.3 38 10.0 S 33 52 18 28 1010.5 - 0.0
21/06:41pm 32.5 28.4 16.0 37 10.5 S 32 54 17 29 1010.3 - 0.0
21/06:30pm 34.5 34.3 15.8 32 11.9 SE 11 17 6 9 1009.9 - 0.0
21/06:00pm 34.5 35.5 16.9 35 11.4 ENE 7 11 4 6 1008.8 1006.5 0.0
21/05:30pm 35.1 35.3 15.7 31 12.4 NNW 9 13 5 7 1008.2 - 0.0
21/05:00pm 34.9 36.5 17.0 34 11.6 N 4 7 2 4 1008.3 - 0.0
21/04:30pm 34.5 35.4 16.5 34 11.6 NNE 7 7 4 4 1007.9 - 0.0
21/04:00pm 33.7 33.7 16.2 35 11.2 NW 11 17 6 9 1007.8 - 0.0
21/03:30pm 33.7 31.0 15.6 33 11.5 NNW 24 35 13 19 1009.0 - 0.0
21/03:00pm 34.3 31.0 17.0 35 11.2 N 30 37 16 20 1008.6 1006.3 0.0
21/02:30pm 35.9 32.3 17.6 34 12.0 N 33 41 18 22 1008.2 - 0.0
21/02:21pm 34.4 31.4 19.1 40 10.2 N 33 43 18 23 1008.6 - 0.0
21/02:07pm 32.9 31.5 18.7 43 9.4 NW 24 28 13 15 1009.0 - 0.0
21/02:02pm 35.1 30.4 16.9 34 11.8 N 37 56 20 30 1008.9 - 0.0
21/02:00pm 36.1 29.8 17.1 32 12.4 N 46 56 25 30 1008.8 - 0.0
21/01:30pm 41.2 39.5 12.4 18 17.9 N 13 22 7 12 1009.3 - 0.0
21/01:00pm 41.7 38.4 11.7 17 18.5 WNW 20 32 11 17 1010.0 - 0.0
21/12:30pm 41.0 37.4 12.9 19 17.6 N 24 37 13 20 1010.4 - 0.0
21/12:00pm 41.8 38.3 13.5 19 17.9 N 24 35 13 19 1010.9 1008.7 0.0
21/11:30am 39.7 37.3 13.9 21 16.3 W 19 32 10 17 1011.6 - 0.0
21/11:00am 40.2 37.7 14.0 21 16.6 NW 20 32 11 17 1011.8 - 0.0
21/10:30am 40.0 37.6 14.4 22 16.3 NNW 20 35 11 19 1012.0 - 0.0
21/10:00am 38.7 36.4 14.6 24 15.3 NNW 20 32 11 17 1012.2 - 0.0
21/09:30am 37.7 34.7 14.9 26 14.5 NNW 24 32 13 17 1012.4 - 0.0
21/09:00am 36.5 34.7 16.0 29 13.2 NNW 20 28 11 15 1012.5 1010.2 0.0
21/08:30am 35.5 33.9 16.6 32 12.2 NNW 20 26 11 14 1012.6 - 0.0
21/08:00am 34.1 32.7 17.1 36 11.0 NNW 20 28 11 15 1012.5 - 0.0
21/07:30am 32.3 34.2 19.0 45 8.8 N 7 11 4 6 1012.3 - 0.0
21/07:00am 31.0 34.8 20.1 52 7.3 CALM 0 0 0 0 1012.1 - 0.0
21/06:30am 27.9 31.5 20.6 64 4.9 NNW 2 6 1 3 1011.8 - 0.0
21/06:00am 27.3 29.3 19.9 64 4.9 NNE 9 11 5 6 1011.3 1009.0 0.0
21/05:30am 28.2 30.5 20.7 63 5.0 NE 9 11 5 6 1010.9 - 0.0
21/05:00am 29.1 31.3 20.3 59 5.9 N 9 11 5 6 1010.6 - 0.0
21/04:30am 29.0 31.9 21.0 62 5.4 N 7 9 4 5 1010.4 - 0.0
21/04:00am 29.7 32.1 20.8 58 6.0 NNW 9 11 5 6 1010.0 - 0.0
21/03:30am 30.8 32.9 20.9 55 6.7 NW 11 13 6 7 1009.9 - 0.0
21/03:00am 31.0 31.7 20.4 53 7.1 NNW 17 24 9 13 1009.8 1007.5 0.0
21/02:30am 29.4 31.0 19.1 54 6.8 NNW 9 9 5 5 1009.6 - 0.0
21/02:00am 30.3 31.1 18.2 48 7.9 N 11 13 6 7 1009.7 - 0.0
21/01:30am 30.0 29.5 15.0 40 9.3 N 11 15 6 8 1009.8 - 0.0
21/01:00am 29.7 29.5 13.1 36 10.0 N 6 13 3 7 1009.7 - 0.0
21/12:30am 29.9 29.5 9.6 28 11.6 W 2 7 1 4 1010.0 - 0.0
21/12:00am 29.2 27.2 8.7 27 11.5 N 9 13 5 7 1010.0 1007.7 0.0
 
Date/Time
EST
Temp
°C
App
Temp
°C
Dew
Point
Rel
Hum
%
Delta-T
°C
Wind Press
QNH
hPa
Press
MSL
hPa
Rain
since 9 am
mm
Dir
 
Spd
km/h
Gust
km/h
Spd
kts
Gust
kts
20/11:30pm 29.5 29.0 7.8 25 12.0 CALM 0 0 0 0 1010.0 - 0.0
20/11:00pm 31.4 30.1 3.9 17 14.4 CALM 0 9 0 5 1009.7 - 0.0
20/10:30pm 30.6 28.3 5.0 20 13.6 SW 6 7 3 4 1009.7 - 0.0
20/10:00pm 31.1 30.4 6.9 22 13.3 CALM 0 0 0 0 1009.5 - 0.0

Other Formats:

Comma delimited format used in spreadsheet applications
http://www.bom.gov.au/fwo/IDQ60801/IDQ60801.94332.axf

JavaScript Object Notation format (JSON) in row-major order
http://www.bom.gov.au/fwo/IDQ60801/IDQ60801.94332.json